EWG9626 EDDL-LGZA
Flight info
| Callsign | EWG9626 |
|---|---|
| Flight time | 2h 29m |
| Altitude | 33000 |
| Route | DODEN1T DODEN Y853 BOMBI DCT DETEV DCT DINKU M867 XERUM DCT BAVAX DCT RADIZ DCT AIOSA DCT ENOXA DCT KAPPO DCT LUPAL DCT LATAN UM872 ASTUS ASTUS1B |
| Aircraft | A321/M-SDE3FGHIRWY/LB1 |
Departure
| Time | 2026-05-07 09:29 |
|---|---|
| Airport | Düsseldorf Airport (EDDL) |
Arrival
| Time | 2026-05-07 11:59 |
|---|---|
| Airport | Zakynthos International Airport Dionysios Solomos (LGZA) |
| Time | Latitude | Longitude | Altitude | Speed | Heading |
|---|---|---|---|---|---|
| 2026-05-07 08:58 | 51.28156 | 6.76729 | 137 ft | 0 kts | 275° |
| 2026-05-07 09:15 | 51.28155 | 6.76754 | 137 ft | 4 kts | 272° |
| 2026-05-07 09:15 | 51.28154 | 6.76788 | 137 ft | 1 kts | 272° |
| 2026-05-07 09:16 | 51.28154 | 6.76794 | 137 ft | 0 kts | 272° |
| 2026-05-07 09:20 | 51.28157 | 6.76785 | 137 ft | 1 kts | 298° |
| 2026-05-07 09:20 | 51.28178 | 6.76806 | 137 ft | 9 kts | 35° |
| 2026-05-07 09:20 | 51.28264 | 6.76852 | 137 ft | 18 kts | 5° |
| 2026-05-07 09:20 | 51.28408 | 6.76830 | 137 ft | 24 kts | 322° |
| 2026-05-07 09:21 | 51.28506 | 6.76813 | 137 ft | 16 kts | 45° |
| 2026-05-07 09:21 | 51.28573 | 6.76951 | 137 ft | 16 kts | 52° |
| 2026-05-07 09:21 | 51.28643 | 6.77094 | 137 ft | 16 kts | 52° |
| 2026-05-07 09:21 | 51.28710 | 6.77239 | 137 ft | 17 kts | 53° |
| 2026-05-07 09:22 | 51.28751 | 6.77323 | 136 ft | 17 kts | 53° |
| 2026-05-07 09:22 | 51.28814 | 6.77456 | 136 ft | 17 kts | 52° |
| 2026-05-07 09:22 | 51.28887 | 6.77610 | 136 ft | 17 kts | 53° |
| 2026-05-07 09:22 | 51.28960 | 6.77765 | 137 ft | 18 kts | 53° |
| 2026-05-07 09:23 | 51.29034 | 6.77922 | 137 ft | 18 kts | 53° |
| 2026-05-07 09:23 | 51.29109 | 6.78078 | 137 ft | 18 kts | 53° |
| 2026-05-07 09:23 | 51.29184 | 6.78237 | 137 ft | 18 kts | 52° |
| 2026-05-07 09:23 | 51.29261 | 6.78397 | 137 ft | 18 kts | 52° |
| 2026-05-07 09:24 | 51.29339 | 6.78550 | 137 ft | 17 kts | 34° |
| 2026-05-07 09:24 | 51.29425 | 6.78570 | 138 ft | 5 kts | 353° |
| 2026-05-07 09:24 | 51.29435 | 6.78568 | 139 ft | 0 kts | 353° |
| 2026-05-07 09:26 | 51.29445 | 6.78566 | 139 ft | 3 kts | 353° |
| 2026-05-07 09:26 | 51.29477 | 6.78559 | 141 ft | 6 kts | 353° |
| 2026-05-07 09:26 | 51.29517 | 6.78551 | 143 ft | 5 kts | 352° |
| 2026-05-07 09:26 | 51.29535 | 6.78517 | 144 ft | 4 kts | 278° |
| 2026-05-07 09:27 | 51.29518 | 6.78465 | 143 ft | 6 kts | 234° |
| 2026-05-07 09:27 | 51.29513 | 6.78454 | 143 ft | 0 kts | 232° |
| 2026-05-07 09:28 | 51.29511 | 6.78450 | 142 ft | 1 kts | 234° |
| 2026-05-07 09:28 | 51.29469 | 6.78360 | 142 ft | 32 kts | 232° |
| 2026-05-07 09:28 | 51.29194 | 6.77783 | 137 ft | 98 kts | 232° |
| 2026-05-07 09:29 | 51.28654 | 6.76650 | 138 ft | 152 kts | 233° |
| 2026-05-07 09:29 | 51.28005 | 6.75229 | 597 ft | 158 kts | 236° |
| 2026-05-07 09:29 | 51.27385 | 6.73776 | 1234 ft | 160 kts | 238° |
| 2026-05-07 09:29 | 51.26714 | 6.72300 | 1681 ft | 172 kts | 236° |
| 2026-05-07 09:30 | 51.26392 | 6.71617 | 1770 ft | 181 kts | 235° |
| 2026-05-07 09:30 | 51.25588 | 6.69924 | 1981 ft | 203 kts | 235° |
| 2026-05-07 09:30 | 51.24947 | 6.68573 | 2113 ft | 218 kts | 234° |
| 2026-05-07 09:30 | 51.24173 | 6.66929 | 2248 ft | 237 kts | 234° |
| 2026-05-07 09:31 | 51.23084 | 6.64786 | 2507 ft | 259 kts | 223° |
| 2026-05-07 09:31 | 51.21436 | 6.63570 | 3038 ft | 267 kts | 185° |
| 2026-05-07 09:31 | 51.20252 | 6.63590 | 3426 ft | 270 kts | 174° |
| 2026-05-07 09:31 | 51.18377 | 6.63878 | 4133 ft | 272 kts | 173° |
| 2026-05-07 09:32 | 51.16494 | 6.64258 | 4894 ft | 274 kts | 166° |
| 2026-05-07 09:32 | 51.14759 | 6.65553 | 5612 ft | 275 kts | 139° |
| 2026-05-07 09:32 | 51.13690 | 6.67490 | 6139 ft | 276 kts | 116° |
| 2026-05-07 09:32 | 51.13455 | 6.68223 | 6297 ft | 276 kts | 110° |
| 2026-05-07 09:33 | 51.13099 | 6.71194 | 6921 ft | 276 kts | 86° |
| 2026-05-07 09:33 | 51.13214 | 6.74240 | 7550 ft | 278 kts | 85° |
| 2026-05-07 09:33 | 51.13340 | 6.77341 | 8191 ft | 281 kts | 85° |
| 2026-05-07 09:33 | 51.13462 | 6.80459 | 8813 ft | 283 kts | 86° |
| 2026-05-07 09:34 | 51.13582 | 6.83606 | 9444 ft | 286 kts | 85° |
| 2026-05-07 09:34 | 51.13704 | 6.86780 | 10048 ft | 289 kts | 85° |
| 2026-05-07 09:34 | 51.13827 | 6.90037 | 10306 ft | 304 kts | 85° |
| 2026-05-07 09:34 | 51.13954 | 6.93499 | 10433 ft | 323 kts | 86° |
| 2026-05-07 09:35 | 51.14088 | 6.97164 | 10558 ft | 340 kts | 86° |
| 2026-05-07 09:35 | 51.14230 | 7.01061 | 10686 ft | 356 kts | 86° |
| 2026-05-07 09:35 | 51.14374 | 7.05005 | 11000 ft | 364 kts | 85° |
| 2026-05-07 09:35 | 51.14483 | 7.08047 | 11340 ft | 368 kts | 86° |
| 2026-05-07 09:36 | 51.14512 | 7.09957 | 11542 ft | 369 kts | 89° |
| 2026-05-07 09:37 | 51.14577 | 7.14059 | 12003 ft | 373 kts | 87° |
| 2026-05-07 09:37 | 51.14599 | 7.14842 | 12102 ft | 373 kts | 87° |
| 2026-05-07 09:37 | 51.14742 | 7.18996 | 12594 ft | 377 kts | 86° |
| 2026-05-07 09:37 | 51.14918 | 7.23183 | 13060 ft | 381 kts | 85° |
| 2026-05-07 09:38 | 51.15102 | 7.27408 | 13574 ft | 383 kts | 85° |
| 2026-05-07 09:38 | 51.15277 | 7.31665 | 14009 ft | 387 kts | 85° |
| 2026-05-07 09:38 | 51.15419 | 7.35975 | 14443 ft | 390 kts | 89° |
| 2026-05-07 09:38 | 51.15150 | 7.40301 | 14911 ft | 393 kts | 101° |
| 2026-05-07 09:39 | 51.14321 | 7.44471 | 15338 ft | 397 kts | 114° |
| 2026-05-07 09:39 | 51.12959 | 7.48302 | 15771 ft | 400 kts | 126° |
| 2026-05-07 09:39 | 51.11129 | 7.51633 | 16226 ft | 401 kts | 136° |
| 2026-05-07 09:39 | 51.09103 | 7.54719 | 16669 ft | 404 kts | 136° |
| 2026-05-07 09:40 | 51.07100 | 7.57767 | 17120 ft | 405 kts | 136° |
| 2026-05-07 09:40 | 51.05060 | 7.60874 | 17563 ft | 407 kts | 135° |
| 2026-05-07 09:40 | 51.03010 | 7.63998 | 17952 ft | 410 kts | 135° |
| 2026-05-07 09:40 | 51.00942 | 7.67144 | 18344 ft | 413 kts | 135° |
| 2026-05-07 09:41 | 50.98860 | 7.70308 | 18710 ft | 414 kts | 135° |
| 2026-05-07 09:41 | 50.96720 | 7.73386 | 19028 ft | 418 kts | 141° |
| 2026-05-07 09:41 | 50.94306 | 7.75983 | 19368 ft | 420 kts | 148° |
| 2026-05-07 09:41 | 50.91820 | 7.78423 | 19722 ft | 422 kts | 148° |
| 2026-05-07 09:42 | 50.89307 | 7.80892 | 20087 ft | 424 kts | 148° |
| 2026-05-07 09:42 | 50.86792 | 7.83361 | 20449 ft | 426 kts | 148° |
| 2026-05-07 09:42 | 50.84267 | 7.85844 | 20806 ft | 428 kts | 148° |
| 2026-05-07 09:42 | 50.81725 | 7.88342 | 21154 ft | 430 kts | 148° |
| 2026-05-07 09:43 | 50.80037 | 7.89998 | 21389 ft | 432 kts | 148° |
| 2026-05-07 09:43 | 50.77482 | 7.92503 | 21776 ft | 433 kts | 148° |
| 2026-05-07 09:43 | 50.74923 | 7.95009 | 22155 ft | 434 kts | 148° |
| 2026-05-07 09:43 | 50.72343 | 7.97528 | 22469 ft | 437 kts | 148° |
| 2026-05-07 09:44 | 50.69747 | 8.00061 | 22787 ft | 440 kts | 148° |
| 2026-05-07 09:44 | 50.67141 | 8.02602 | 23116 ft | 442 kts | 148° |
| 2026-05-07 09:44 | 50.64518 | 8.05151 | 23435 ft | 444 kts | 148° |
| 2026-05-07 09:44 | 50.61885 | 8.07708 | 23759 ft | 445 kts | 148° |
| 2026-05-07 09:45 | 50.59344 | 8.10475 | 24091 ft | 445 kts | 140° |
| 2026-05-07 09:45 | 50.56963 | 8.13613 | 24354 ft | 447 kts | 140° |
| 2026-05-07 09:45 | 50.54571 | 8.16766 | 24608 ft | 450 kts | 140° |
| 2026-05-07 09:45 | 50.52165 | 8.19923 | 24898 ft | 451 kts | 140° |
| 2026-05-07 09:46 | 50.49750 | 8.23082 | 25169 ft | 452 kts | 140° |
| 2026-05-07 09:46 | 50.47323 | 8.26254 | 25463 ft | 453 kts | 140° |
| 2026-05-07 09:46 | 50.44896 | 8.29423 | 25755 ft | 455 kts | 140° |
| 2026-05-07 09:46 | 50.42453 | 8.32603 | 26007 ft | 457 kts | 140° |
| 2026-05-07 09:47 | 50.40002 | 8.35792 | 26259 ft | 459 kts | 140° |
| 2026-05-07 09:47 | 50.37536 | 8.39005 | 26562 ft | 459 kts | 140° |
| 2026-05-07 09:47 | 50.35082 | 8.42193 | 26812 ft | 461 kts | 140° |
| 2026-05-07 09:47 | 50.32604 | 8.45403 | 27016 ft | 463 kts | 140° |
| 2026-05-07 09:48 | 50.30106 | 8.48632 | 27217 ft | 466 kts | 140° |
| 2026-05-07 09:48 | 50.27645 | 8.51809 | 27424 ft | 467 kts | 140° |
| 2026-05-07 09:48 | 50.25127 | 8.55056 | 27664 ft | 468 kts | 140° |
| 2026-05-07 09:48 | 50.22561 | 8.58364 | 27912 ft | 468 kts | 140° |
| 2026-05-07 09:49 | 50.20104 | 8.61531 | 28200 ft | 468 kts | 140° |
| 2026-05-07 09:49 | 50.17590 | 8.64766 | 28482 ft | 467 kts | 140° |
| 2026-05-07 09:49 | 50.15078 | 8.67991 | 28819 ft | 465 kts | 140° |
| 2026-05-07 09:49 | 50.12575 | 8.71199 | 29170 ft | 464 kts | 140° |
| 2026-05-07 09:50 | 50.10052 | 8.74430 | 29475 ft | 463 kts | 140° |
| 2026-05-07 09:50 | 50.07671 | 8.77725 | 29735 ft | 463 kts | 134° |
| 2026-05-07 09:50 | 50.05586 | 8.81530 | 30012 ft | 462 kts | 125° |
| 2026-05-07 09:50 | 50.03886 | 8.85761 | 30257 ft | 461 kts | 117° |
| 2026-05-07 09:51 | 50.02488 | 8.90249 | 30450 ft | 461 kts | 115° |
| 2026-05-07 09:51 | 50.01099 | 8.94755 | 30673 ft | 461 kts | 115° |
| 2026-05-07 09:51 | 49.99707 | 8.99245 | 30890 ft | 461 kts | 115° |
| 2026-05-07 09:51 | 49.98309 | 9.03729 | 31086 ft | 461 kts | 116° |
| 2026-05-07 09:52 | 49.96904 | 9.08209 | 31287 ft | 461 kts | 116° |
| 2026-05-07 09:52 | 49.95499 | 9.12677 | 31493 ft | 461 kts | 116° |
| 2026-05-07 09:52 | 49.94090 | 9.17151 | 31669 ft | 461 kts | 116° |
| 2026-05-07 09:52 | 49.92678 | 9.21631 | 31838 ft | 462 kts | 116° |
| 2026-05-07 09:53 | 49.91279 | 9.26066 | 32033 ft | 462 kts | 116° |
| 2026-05-07 09:53 | 49.89844 | 9.30615 | 32246 ft | 461 kts | 116° |
| 2026-05-07 09:53 | 49.88456 | 9.35013 | 32447 ft | 461 kts | 116° |
| 2026-05-07 09:53 | 49.87025 | 9.39537 | 32634 ft | 461 kts | 116° |
| 2026-05-07 09:54 | 49.85610 | 9.43994 | 32821 ft | 461 kts | 116° |
| 2026-05-07 09:54 | 49.84192 | 9.48454 | 32976 ft | 461 kts | 117° |
| 2026-05-07 09:54 | 49.82606 | 9.52755 | 33008 ft | 460 kts | 125° |
| 2026-05-07 09:55 | 49.78323 | 9.60067 | 33005 ft | 459 kts | 138° |
| 2026-05-07 09:55 | 49.73651 | 9.66814 | 33005 ft | 460 kts | 137° |
| 2026-05-07 09:56 | 49.68985 | 9.73597 | 33005 ft | 460 kts | 137° |
| 2026-05-07 09:56 | 49.64317 | 9.80359 | 33006 ft | 460 kts | 138° |
| 2026-05-07 09:57 | 49.59665 | 9.87045 | 33005 ft | 460 kts | 138° |
| 2026-05-07 09:57 | 49.54979 | 9.93759 | 33003 ft | 460 kts | 138° |
| 2026-05-07 09:58 | 49.50280 | 10.00481 | 33004 ft | 462 kts | 138° |
| 2026-05-07 09:58 | 49.45562 | 10.07219 | 33004 ft | 462 kts | 138° |
| 2026-05-07 09:59 | 49.40848 | 10.13940 | 33004 ft | 462 kts | 139° |
| 2026-05-07 09:59 | 49.36124 | 10.20640 | 33010 ft | 462 kts | 139° |
| 2026-05-07 10:00 | 49.31392 | 10.27328 | 33016 ft | 463 kts | 139° |
| 2026-05-07 10:00 | 49.26667 | 10.33990 | 33017 ft | 461 kts | 139° |
| 2026-05-07 10:01 | 49.21675 | 10.40093 | 33041 ft | 458 kts | 151° |
| 2026-05-07 10:01 | 49.16192 | 10.45075 | 33040 ft | 458 kts | 151° |
| 2026-05-07 10:02 | 49.10713 | 10.50043 | 33054 ft | 458 kts | 151° |
| 2026-05-07 10:02 | 49.05264 | 10.54990 | 33055 ft | 459 kts | 151° |
| 2026-05-07 10:03 | 48.99777 | 10.59963 | 33049 ft | 459 kts | 151° |
| 2026-05-07 10:03 | 48.94305 | 10.64907 | 33049 ft | 455 kts | 151° |
| 2026-05-07 10:04 | 48.88871 | 10.69807 | 33049 ft | 454 kts | 151° |
| 2026-05-07 10:04 | 48.83438 | 10.74697 | 33047 ft | 454 kts | 150° |
| 2026-05-07 10:05 | 48.78627 | 10.80928 | 33037 ft | 459 kts | 134° |
| 2026-05-07 10:05 | 48.74369 | 10.88129 | 33032 ft | 459 kts | 134° |
| 2026-05-07 10:06 | 48.70087 | 10.95303 | 33028 ft | 459 kts | 135° |
| 2026-05-07 10:06 | 48.65798 | 11.02446 | 33028 ft | 458 kts | 135° |
| 2026-05-07 10:07 | 48.61511 | 11.09574 | 33029 ft | 458 kts | 135° |
| 2026-05-07 10:07 | 48.57228 | 11.16700 | 33028 ft | 458 kts | 135° |
| 2026-05-07 10:08 | 48.52932 | 11.23819 | 33022 ft | 458 kts | 135° |
| 2026-05-07 10:08 | 48.48623 | 11.30932 | 33009 ft | 458 kts | 136° |
| 2026-05-07 10:09 | 48.44333 | 11.38006 | 33022 ft | 457 kts | 136° |
| 2026-05-07 10:09 | 48.40078 | 11.45009 | 33020 ft | 456 kts | 136° |
| 2026-05-07 10:10 | 48.35785 | 11.52043 | 33021 ft | 456 kts | 136° |
| 2026-05-07 10:10 | 48.31484 | 11.59069 | 33025 ft | 456 kts | 136° |
| 2026-05-07 10:11 | 48.27183 | 11.66079 | 33020 ft | 455 kts | 137° |
| 2026-05-07 10:11 | 48.22753 | 11.72775 | 33027 ft | 450 kts | 141° |
| 2026-05-07 10:12 | 48.18094 | 11.79038 | 33017 ft | 449 kts | 143° |
| 2026-05-07 10:12 | 48.13413 | 11.85228 | 33019 ft | 449 kts | 142° |
| 2026-05-07 10:13 | 48.08772 | 11.91513 | 33015 ft | 450 kts | 142° |
| 2026-05-07 10:13 | 48.04166 | 11.97841 | 33008 ft | 450 kts | 142° |
| 2026-05-07 10:14 | 47.99614 | 12.04080 | 33010 ft | 445 kts | 143° |
| 2026-05-07 10:14 | 47.95040 | 12.10301 | 33010 ft | 444 kts | 143° |
| 2026-05-07 10:15 | 47.90457 | 12.16498 | 33012 ft | 444 kts | 143° |
| 2026-05-07 10:15 | 47.85876 | 12.22669 | 33012 ft | 444 kts | 143° |
| 2026-05-07 10:16 | 47.81294 | 12.28846 | 33020 ft | 444 kts | 143° |
| 2026-05-07 10:16 | 47.76711 | 12.35016 | 33008 ft | 444 kts | 143° |
| 2026-05-07 10:17 | 47.72114 | 12.41187 | 33021 ft | 445 kts | 143° |
| 2026-05-07 10:17 | 47.67509 | 12.47347 | 33022 ft | 446 kts | 143° |
| 2026-05-07 10:18 | 47.62871 | 12.53439 | 33018 ft | 442 kts | 148° |
| 2026-05-07 10:18 | 47.57761 | 12.58375 | 33021 ft | 438 kts | 153° |
| 2026-05-07 10:19 | 47.52602 | 12.63156 | 32987 ft | 435 kts | 154° |
| 2026-05-07 10:19 | 47.47534 | 12.67852 | 33014 ft | 431 kts | 154° |
| 2026-05-07 10:20 | 47.42447 | 12.72546 | 33013 ft | 431 kts | 154° |
| 2026-05-07 10:20 | 47.37363 | 12.77232 | 33013 ft | 431 kts | 154° |
| 2026-05-07 10:21 | 47.32276 | 12.81905 | 33006 ft | 431 kts | 154° |
| 2026-05-07 10:21 | 47.28050 | 12.85779 | 32994 ft | 431 kts | 154° |
| 2026-05-07 10:22 | 47.22925 | 12.90465 | 32992 ft | 431 kts | 154° |
| 2026-05-07 10:22 | 47.17861 | 12.95089 | 32992 ft | 427 kts | 155° |
| 2026-05-07 10:23 | 47.12825 | 12.99672 | 32983 ft | 426 kts | 155° |
| 2026-05-07 10:23 | 47.07784 | 13.04243 | 32983 ft | 426 kts | 155° |
| 2026-05-07 10:24 | 47.02774 | 13.08787 | 32969 ft | 427 kts | 155° |
| 2026-05-07 10:24 | 46.97717 | 13.13360 | 32966 ft | 426 kts | 155° |
| 2026-05-07 10:25 | 46.92660 | 13.17927 | 32970 ft | 427 kts | 155° |
| 2026-05-07 10:25 | 46.87620 | 13.22466 | 32971 ft | 425 kts | 155° |
| 2026-05-07 10:26 | 46.82576 | 13.26989 | 32964 ft | 426 kts | 155° |
| 2026-05-07 10:26 | 46.77521 | 13.31528 | 32968 ft | 427 kts | 155° |
| 2026-05-07 10:27 | 46.72465 | 13.36052 | 32969 ft | 427 kts | 155° |
| 2026-05-07 10:27 | 46.67404 | 13.40566 | 32975 ft | 427 kts | 155° |
| 2026-05-07 10:28 | 46.62343 | 13.45071 | 32965 ft | 426 kts | 155° |
| 2026-05-07 10:28 | 46.57290 | 13.49554 | 32973 ft | 425 kts | 156° |
| 2026-05-07 10:29 | 46.52236 | 13.54050 | 32977 ft | 426 kts | 156° |
| 2026-05-07 10:29 | 46.47180 | 13.58523 | 32982 ft | 425 kts | 156° |
| 2026-05-07 10:30 | 46.39628 | 13.65164 | 32987 ft | 425 kts | 156° |
| 2026-05-07 10:30 | 46.34569 | 13.69613 | 32978 ft | 426 kts | 156° |
| 2026-05-07 10:31 | 46.29496 | 13.74070 | 32976 ft | 427 kts | 156° |
| 2026-05-07 10:31 | 46.24416 | 13.78524 | 32998 ft | 427 kts | 156° |
| 2026-05-07 10:32 | 46.19332 | 13.82979 | 32996 ft | 427 kts | 156° |
| 2026-05-07 10:32 | 46.14249 | 13.87418 | 32994 ft | 427 kts | 156° |
| 2026-05-07 10:33 | 46.09141 | 13.91846 | 32997 ft | 430 kts | 156° |
| 2026-05-07 10:33 | 46.04010 | 13.96299 | 33003 ft | 431 kts | 156° |
| 2026-05-07 10:34 | 45.98879 | 14.00744 | 32997 ft | 430 kts | 156° |
| 2026-05-07 10:34 | 45.93741 | 14.05188 | 33004 ft | 431 kts | 156° |
| 2026-05-07 10:35 | 45.88599 | 14.09623 | 33002 ft | 431 kts | 156° |
| 2026-05-07 10:35 | 45.83486 | 14.14024 | 33003 ft | 431 kts | 156° |
| 2026-05-07 10:36 | 45.78342 | 14.18440 | 33005 ft | 431 kts | 156° |
| 2026-05-07 10:36 | 45.73195 | 14.22860 | 33014 ft | 431 kts | 156° |
| 2026-05-07 10:37 | 45.68051 | 14.27259 | 33007 ft | 431 kts | 156° |
| 2026-05-07 10:37 | 45.62904 | 14.31647 | 33019 ft | 431 kts | 157° |
| 2026-05-07 10:38 | 45.57746 | 14.36029 | 33022 ft | 431 kts | 157° |
| 2026-05-07 10:38 | 45.52583 | 14.40415 | 33025 ft | 431 kts | 157° |
| 2026-05-07 10:39 | 45.47434 | 14.44787 | 33038 ft | 431 kts | 157° |
| 2026-05-07 10:39 | 45.42275 | 14.49155 | 33046 ft | 431 kts | 157° |
| 2026-05-07 10:40 | 45.37119 | 14.53498 | 33051 ft | 430 kts | 158° |
| 2026-05-07 10:40 | 45.31969 | 14.57839 | 33056 ft | 430 kts | 158° |
| 2026-05-07 10:41 | 45.26817 | 14.62173 | 33057 ft | 430 kts | 158° |
| 2026-05-07 10:41 | 45.21703 | 14.66459 | 33048 ft | 430 kts | 158° |
| 2026-05-07 10:42 | 45.16545 | 14.70775 | 33056 ft | 431 kts | 158° |
| 2026-05-07 10:42 | 45.11379 | 14.75083 | 33019 ft | 431 kts | 157° |
| 2026-05-07 10:43 | 45.06208 | 14.79396 | 33050 ft | 432 kts | 157° |
| 2026-05-07 10:43 | 45.01025 | 14.83705 | 33044 ft | 432 kts | 157° |
| 2026-05-07 10:44 | 44.95841 | 14.88003 | 33032 ft | 433 kts | 157° |
| 2026-05-07 10:44 | 44.90645 | 14.92307 | 33046 ft | 433 kts | 157° |
| 2026-05-07 10:45 | 44.85448 | 14.96607 | 33035 ft | 432 kts | 157° |
| 2026-05-07 10:45 | 44.80256 | 15.00892 | 33030 ft | 433 kts | 157° |
| 2026-05-07 10:46 | 44.75055 | 15.05169 | 33046 ft | 433 kts | 157° |
| 2026-05-07 10:46 | 44.69840 | 15.09448 | 33037 ft | 434 kts | 157° |
| 2026-05-07 10:47 | 44.64625 | 15.13721 | 33046 ft | 434 kts | 157° |
| 2026-05-07 10:47 | 44.59435 | 15.17961 | 33048 ft | 434 kts | 157° |
| 2026-05-07 10:48 | 44.54208 | 15.22233 | 33014 ft | 435 kts | 157° |
| 2026-05-07 10:48 | 44.48956 | 15.26504 | 33050 ft | 437 kts | 157° |
| 2026-05-07 10:49 | 44.43693 | 15.30765 | 33047 ft | 437 kts | 157° |
| 2026-05-07 10:49 | 44.38428 | 15.35039 | 33057 ft | 437 kts | 157° |
| 2026-05-07 10:50 | 44.33174 | 15.39301 | 33035 ft | 437 kts | 157° |
| 2026-05-07 10:50 | 44.27900 | 15.43560 | 33057 ft | 438 kts | 157° |
| 2026-05-07 10:51 | 44.22604 | 15.47817 | 33057 ft | 442 kts | 157° |
| 2026-05-07 10:51 | 44.17265 | 15.52106 | 33058 ft | 444 kts | 157° |
| 2026-05-07 10:52 | 44.11944 | 15.56375 | 33036 ft | 444 kts | 156° |
| 2026-05-07 10:52 | 44.06579 | 15.60670 | 33054 ft | 445 kts | 156° |
| 2026-05-07 10:53 | 44.01205 | 15.64969 | 33053 ft | 446 kts | 156° |
| 2026-05-07 10:53 | 43.95830 | 15.69266 | 33048 ft | 445 kts | 156° |
| 2026-05-07 10:54 | 43.90460 | 15.73544 | 33041 ft | 445 kts | 156° |
| 2026-05-07 10:54 | 43.85063 | 15.77819 | 33043 ft | 447 kts | 156° |
| 2026-05-07 10:55 | 43.79656 | 15.82101 | 33046 ft | 448 kts | 156° |
| 2026-05-07 10:55 | 43.74246 | 15.86377 | 33046 ft | 447 kts | 156° |
| 2026-05-07 10:56 | 43.68867 | 15.90616 | 33043 ft | 448 kts | 156° |
| 2026-05-07 10:56 | 43.63454 | 15.94880 | 33046 ft | 448 kts | 156° |
| 2026-05-07 10:57 | 43.58035 | 15.99144 | 33051 ft | 448 kts | 156° |
| 2026-05-07 10:57 | 43.52622 | 16.03386 | 33054 ft | 447 kts | 156° |
| 2026-05-07 10:58 | 43.47210 | 16.07624 | 33040 ft | 447 kts | 156° |
| 2026-05-07 10:58 | 43.41770 | 16.11875 | 33054 ft | 450 kts | 156° |
| 2026-05-07 10:59 | 43.36308 | 16.16126 | 33052 ft | 451 kts | 156° |
| 2026-05-07 10:59 | 43.30850 | 16.20368 | 33051 ft | 451 kts | 156° |
| 2026-05-07 11:00 | 43.25389 | 16.24603 | 33036 ft | 451 kts | 156° |
| 2026-05-07 11:00 | 43.19903 | 16.28846 | 33054 ft | 453 kts | 156° |
| 2026-05-07 11:01 | 43.14406 | 16.33095 | 33054 ft | 453 kts | 156° |
| 2026-05-07 11:01 | 43.08936 | 16.37304 | 33059 ft | 453 kts | 155° |
| 2026-05-07 11:02 | 43.03431 | 16.41535 | 33047 ft | 453 kts | 155° |
| 2026-05-07 11:02 | 42.97920 | 16.45772 | 33059 ft | 455 kts | 155° |
| 2026-05-07 11:03 | 42.92390 | 16.50011 | 33066 ft | 456 kts | 155° |
| 2026-05-07 11:03 | 42.86860 | 16.54240 | 33065 ft | 456 kts | 155° |
| 2026-05-07 11:04 | 42.81326 | 16.58465 | 33048 ft | 456 kts | 155° |
| 2026-05-07 11:04 | 42.75809 | 16.62664 | 33059 ft | 458 kts | 155° |
| 2026-05-07 11:05 | 42.70243 | 16.66889 | 33065 ft | 458 kts | 155° |
| 2026-05-07 11:05 | 42.64679 | 16.71115 | 33058 ft | 458 kts | 155° |
| 2026-05-07 11:06 | 42.59109 | 16.75337 | 33071 ft | 458 kts | 155° |
| 2026-05-07 11:06 | 42.54429 | 16.78871 | 33060 ft | 460 kts | 155° |
| 2026-05-07 11:07 | 42.48823 | 16.83091 | 33059 ft | 461 kts | 155° |
| 2026-05-07 11:07 | 42.43217 | 16.87302 | 33067 ft | 461 kts | 155° |
| 2026-05-07 11:08 | 42.37608 | 16.91522 | 33063 ft | 461 kts | 155° |
| 2026-05-07 11:08 | 42.31987 | 16.95741 | 33066 ft | 463 kts | 155° |
| 2026-05-07 11:09 | 42.26377 | 16.99931 | 33065 ft | 464 kts | 155° |
| 2026-05-07 11:09 | 42.20722 | 17.04144 | 33061 ft | 464 kts | 155° |
| 2026-05-07 11:10 | 42.15063 | 17.08349 | 33068 ft | 465 kts | 155° |
| 2026-05-07 11:10 | 42.09391 | 17.12565 | 33065 ft | 467 kts | 155° |
| 2026-05-07 11:11 | 42.03702 | 17.16794 | 33062 ft | 467 kts | 155° |
| 2026-05-07 11:11 | 41.98008 | 17.21010 | 33070 ft | 467 kts | 155° |
| 2026-05-07 11:12 | 41.92294 | 17.25143 | 33069 ft | 464 kts | 160° |
| 2026-05-07 11:12 | 41.86362 | 17.28619 | 33067 ft | 467 kts | 161° |
| 2026-05-07 11:13 | 41.80398 | 17.32095 | 33074 ft | 467 kts | 161° |
| 2026-05-07 11:13 | 41.74432 | 17.35573 | 33072 ft | 468 kts | 161° |
| 2026-05-07 11:14 | 41.68455 | 17.39050 | 33067 ft | 468 kts | 161° |
| 2026-05-07 11:14 | 41.62478 | 17.42529 | 33077 ft | 468 kts | 161° |
| 2026-05-07 11:15 | 41.56536 | 17.45976 | 33073 ft | 468 kts | 161° |
| 2026-05-07 11:15 | 41.50540 | 17.49434 | 33077 ft | 468 kts | 161° |
| 2026-05-07 11:16 | 41.44552 | 17.52872 | 33073 ft | 468 kts | 161° |
| 2026-05-07 11:16 | 41.38572 | 17.56314 | 33077 ft | 469 kts | 161° |
| 2026-05-07 11:17 | 41.32583 | 17.59756 | 33069 ft | 469 kts | 161° |
| 2026-05-07 11:17 | 41.26632 | 17.63171 | 33076 ft | 469 kts | 161° |
| 2026-05-07 11:18 | 41.20631 | 17.66602 | 33078 ft | 470 kts | 161° |
| 2026-05-07 11:18 | 41.14616 | 17.70038 | 33071 ft | 471 kts | 161° |
| 2026-05-07 11:19 | 41.08589 | 17.73467 | 33074 ft | 471 kts | 161° |
| 2026-05-07 11:19 | 41.02578 | 17.76881 | 33073 ft | 468 kts | 161° |
| 2026-05-07 11:20 | 40.96583 | 17.80277 | 33074 ft | 469 kts | 161° |
| 2026-05-07 11:20 | 40.90572 | 17.83678 | 33076 ft | 469 kts | 161° |
| 2026-05-07 11:21 | 40.84562 | 17.87080 | 33073 ft | 470 kts | 161° |
| 2026-05-07 11:21 | 40.78550 | 17.90469 | 33053 ft | 470 kts | 161° |
| 2026-05-07 11:22 | 40.72498 | 17.93862 | 33056 ft | 474 kts | 162° |
| 2026-05-07 11:22 | 40.66431 | 17.97271 | 33056 ft | 474 kts | 162° |
| 2026-05-07 11:23 | 40.60362 | 18.00696 | 33054 ft | 475 kts | 160° |
| 2026-05-07 11:23 | 40.54449 | 18.04527 | 33037 ft | 479 kts | 157° |
| 2026-05-07 11:24 | 40.48555 | 18.08733 | 33065 ft | 483 kts | 156° |
| 2026-05-07 11:24 | 40.42629 | 18.12915 | 33082 ft | 483 kts | 157° |
| 2026-05-07 11:25 | 40.36657 | 18.16981 | 33084 ft | 483 kts | 158° |
| 2026-05-07 11:25 | 40.30674 | 18.21000 | 33072 ft | 484 kts | 158° |
| 2026-05-07 11:26 | 40.24667 | 18.25041 | 33084 ft | 486 kts | 158° |
| 2026-05-07 11:26 | 40.18660 | 18.29100 | 33081 ft | 486 kts | 158° |
| 2026-05-07 11:27 | 40.12655 | 18.33162 | 33087 ft | 486 kts | 158° |
| 2026-05-07 11:27 | 40.06652 | 18.37208 | 33366 ft | 484 kts | 159° |
| 2026-05-07 11:28 | 40.03664 | 18.39215 | 33634 ft | 483 kts | 159° |
| 2026-05-07 11:28 | 40.00679 | 18.41219 | 33905 ft | 482 kts | 159° |
| 2026-05-07 11:28 | 39.97696 | 18.43220 | 34066 ft | 483 kts | 159° |
| 2026-05-07 11:28 | 39.94704 | 18.45227 | 34103 ft | 484 kts | 159° |
| 2026-05-07 11:29 | 39.88711 | 18.49249 | 34082 ft | 484 kts | 159° |
| 2026-05-07 11:29 | 39.82714 | 18.53241 | 34081 ft | 485 kts | 159° |
| 2026-05-07 11:30 | 39.76707 | 18.57234 | 34098 ft | 490 kts | 159° |
| 2026-05-07 11:30 | 39.70639 | 18.61284 | 34098 ft | 490 kts | 159° |
| 2026-05-07 11:31 | 39.64565 | 18.65324 | 34099 ft | 491 kts | 159° |
| 2026-05-07 11:31 | 39.58474 | 18.69350 | 34073 ft | 492 kts | 160° |
| 2026-05-07 11:32 | 39.49298 | 18.75453 | 34081 ft | 499 kts | 156° |
| 2026-05-07 11:33 | 39.43780 | 18.81096 | 34087 ft | 513 kts | 139° |
| 2026-05-07 11:33 | 39.38763 | 18.87689 | 34110 ft | 514 kts | 139° |
| 2026-05-07 11:34 | 39.33732 | 18.94267 | 34097 ft | 514 kts | 140° |
| 2026-05-07 11:34 | 39.28679 | 19.00856 | 34070 ft | 518 kts | 140° |
| 2026-05-07 11:35 | 39.23617 | 19.07447 | 34071 ft | 522 kts | 140° |
| 2026-05-07 11:35 | 39.18497 | 19.14116 | 34080 ft | 523 kts | 140° |
| 2026-05-07 11:36 | 39.13375 | 19.20783 | 34109 ft | 523 kts | 140° |
| 2026-05-07 11:36 | 39.08253 | 19.27435 | 34122 ft | 523 kts | 140° |
| 2026-05-07 11:37 | 39.03120 | 19.34076 | 34123 ft | 523 kts | 140° |
| 2026-05-07 11:37 | 38.97982 | 19.40693 | 34125 ft | 523 kts | 140° |
| 2026-05-07 11:38 | 38.92840 | 19.47319 | 34130 ft | 523 kts | 140° |
| 2026-05-07 11:38 | 38.87744 | 19.53877 | 34139 ft | 521 kts | 140° |
| 2026-05-07 11:39 | 38.82614 | 19.60452 | 34131 ft | 521 kts | 140° |
| 2026-05-07 11:39 | 38.80048 | 19.63736 | 33516 ft | 521 kts | 140° |
| 2026-05-07 11:39 | 38.77489 | 19.67010 | 32822 ft | 519 kts | 140° |
| 2026-05-07 11:39 | 38.74927 | 19.70279 | 32179 ft | 519 kts | 140° |
| 2026-05-07 11:40 | 38.72375 | 19.73536 | 31558 ft | 517 kts | 140° |
| 2026-05-07 11:40 | 38.69833 | 19.76781 | 30946 ft | 515 kts | 140° |
| 2026-05-07 11:40 | 38.67308 | 19.80005 | 30347 ft | 511 kts | 140° |
| 2026-05-07 11:40 | 38.64794 | 19.83208 | 29677 ft | 509 kts | 140° |
| 2026-05-07 11:41 | 38.62288 | 19.86392 | 28987 ft | 506 kts | 140° |
| 2026-05-07 11:41 | 38.59804 | 19.89548 | 28318 ft | 501 kts | 140° |
| 2026-05-07 11:41 | 38.57336 | 19.92677 | 27664 ft | 497 kts | 140° |
| 2026-05-07 11:41 | 38.54892 | 19.95774 | 27028 ft | 493 kts | 140° |
| 2026-05-07 11:42 | 38.52497 | 19.98805 | 26408 ft | 488 kts | 140° |
| 2026-05-07 11:42 | 38.50094 | 20.01841 | 25788 ft | 484 kts | 140° |
| 2026-05-07 11:42 | 38.47618 | 20.04683 | 25190 ft | 473 kts | 149° |
| 2026-05-07 11:42 | 38.44789 | 20.06670 | 24597 ft | 457 kts | 164° |
| 2026-05-07 11:43 | 38.41776 | 20.07689 | 24023 ft | 441 kts | 178° |
| 2026-05-07 11:43 | 38.38765 | 20.07791 | 23412 ft | 427 kts | 191° |
| 2026-05-07 11:43 | 38.35909 | 20.07046 | 22755 ft | 413 kts | 204° |
| 2026-05-07 11:43 | 38.33334 | 20.05570 | 22100 ft | 401 kts | 215° |
| 2026-05-07 11:44 | 38.30917 | 20.03831 | 21464 ft | 398 kts | 211° |
| 2026-05-07 11:44 | 38.28409 | 20.02365 | 20835 ft | 396 kts | 207° |
| 2026-05-07 11:44 | 38.25846 | 20.01091 | 20208 ft | 394 kts | 204° |
| 2026-05-07 11:44 | 38.23261 | 19.99984 | 19608 ft | 391 kts | 201° |
| 2026-05-07 11:45 | 38.20643 | 19.99065 | 19018 ft | 390 kts | 198° |
| 2026-05-07 11:45 | 38.17991 | 19.98371 | 18440 ft | 389 kts | 194° |
| 2026-05-07 11:45 | 38.15315 | 19.97921 | 17786 ft | 387 kts | 189° |
| 2026-05-07 11:45 | 38.12627 | 19.97707 | 17138 ft | 386 kts | 186° |
| 2026-05-07 11:46 | 38.09949 | 19.97709 | 16501 ft | 384 kts | 182° |
| 2026-05-07 11:46 | 38.07289 | 19.97916 | 15879 ft | 382 kts | 179° |
| 2026-05-07 11:46 | 38.04675 | 19.98539 | 15259 ft | 385 kts | 165° |
| 2026-05-07 11:46 | 38.02298 | 20.00117 | 14659 ft | 391 kts | 147° |
| 2026-05-07 11:47 | 38.00386 | 20.02580 | 14068 ft | 396 kts | 129° |
| 2026-05-07 11:47 | 37.99146 | 20.05701 | 13438 ft | 400 kts | 111° |
| 2026-05-07 11:47 | 37.98695 | 20.09190 | 12812 ft | 401 kts | 95° |
| 2026-05-07 11:47 | 37.98474 | 20.12682 | 12173 ft | 394 kts | 101° |
| 2026-05-07 11:48 | 37.98091 | 20.16106 | 11543 ft | 390 kts | 101° |
| 2026-05-07 11:48 | 37.97882 | 20.19516 | 10940 ft | 389 kts | 89° |
| 2026-05-07 11:48 | 37.98305 | 20.22894 | 10363 ft | 386 kts | 81° |
| 2026-05-07 11:48 | 37.98868 | 20.26205 | 9748 ft | 382 kts | 80° |
| 2026-05-07 11:49 | 37.99447 | 20.29460 | 9312 ft | 373 kts | 80° |
| 2026-05-07 11:49 | 38.00014 | 20.32613 | 8976 ft | 360 kts | 80° |
| 2026-05-07 11:49 | 38.00562 | 20.35622 | 8648 ft | 340 kts | 80° |
| 2026-05-07 11:49 | 38.01091 | 20.38467 | 8325 ft | 323 kts | 80° |
| 2026-05-07 11:50 | 38.01598 | 20.41161 | 8005 ft | 307 kts | 80° |
| 2026-05-07 11:50 | 38.02083 | 20.43709 | 7704 ft | 295 kts | 80° |
| 2026-05-07 11:50 | 38.02546 | 20.46212 | 7419 ft | 289 kts | 84° |
| 2026-05-07 11:50 | 38.02545 | 20.48705 | 7125 ft | 280 kts | 105° |
| 2026-05-07 11:51 | 38.01885 | 20.50984 | 6843 ft | 275 kts | 118° |
| 2026-05-07 11:51 | 38.01088 | 20.53171 | 6557 ft | 272 kts | 118° |
| 2026-05-07 11:51 | 38.00551 | 20.54640 | 6348 ft | 271 kts | 118° |
| 2026-05-07 11:51 | 37.99756 | 20.56806 | 6051 ft | 270 kts | 118° |
| 2026-05-07 11:52 | 37.98965 | 20.58954 | 5751 ft | 268 kts | 117° |
| 2026-05-07 11:52 | 37.98177 | 20.61090 | 5454 ft | 267 kts | 117° |
| 2026-05-07 11:52 | 37.97397 | 20.63209 | 5147 ft | 263 kts | 117° |
| 2026-05-07 11:52 | 37.96633 | 20.65295 | 4857 ft | 259 kts | 117° |
| 2026-05-07 11:53 | 37.95891 | 20.67321 | 4556 ft | 254 kts | 117° |
| 2026-05-07 11:53 | 37.95151 | 20.69338 | 4243 ft | 243 kts | 117° |
| 2026-05-07 11:53 | 37.94459 | 20.71216 | 3952 ft | 234 kts | 117° |
| 2026-05-07 11:53 | 37.93776 | 20.73068 | 3690 ft | 231 kts | 116° |
| 2026-05-07 11:54 | 37.93096 | 20.74905 | 3443 ft | 230 kts | 116° |
| 2026-05-07 11:54 | 37.92421 | 20.76733 | 3195 ft | 228 kts | 117° |
| 2026-05-07 11:54 | 37.91756 | 20.78539 | 3039 ft | 226 kts | 116° |
| 2026-05-07 11:54 | 37.91091 | 20.80340 | 3005 ft | 226 kts | 117° |
| 2026-05-07 11:55 | 37.90196 | 20.81889 | 2983 ft | 215 kts | 141° |
| 2026-05-07 11:55 | 37.88890 | 20.82722 | 2683 ft | 208 kts | 162° |
| 2026-05-07 11:55 | 37.87527 | 20.83283 | 2408 ft | 202 kts | 162° |
| 2026-05-07 11:55 | 37.86237 | 20.83823 | 2146 ft | 188 kts | 162° |
| 2026-05-07 11:56 | 37.85030 | 20.84325 | 1897 ft | 176 kts | 162° |
| 2026-05-07 11:56 | 37.83925 | 20.84785 | 1678 ft | 159 kts | 162° |
| 2026-05-07 11:56 | 37.82918 | 20.85204 | 1466 ft | 147 kts | 162° |
| 2026-05-07 11:56 | 37.81960 | 20.85604 | 1294 ft | 143 kts | 162° |
| 2026-05-07 11:57 | 37.81054 | 20.86106 | 1077 ft | 141 kts | 157° |
| 2026-05-07 11:57 | 37.80136 | 20.86577 | 873 ft | 140 kts | 162° |
| 2026-05-07 11:57 | 37.79209 | 20.86931 | 700 ft | 141 kts | 164° |
| 2026-05-07 11:57 | 37.78255 | 20.87266 | 521 ft | 142 kts | 165° |
| 2026-05-07 11:58 | 37.77303 | 20.87601 | 305 ft | 142 kts | 163° |
| 2026-05-07 11:58 | 37.76362 | 20.87956 | 144 ft | 141 kts | 163° |
| 2026-05-07 11:58 | 37.75427 | 20.88298 | 32 ft | 134 kts | 165° |
| 2026-05-07 11:58 | 37.74644 | 20.88589 | 22 ft | 88 kts | 163° |
| 2026-05-07 11:59 | 37.74314 | 20.88715 | 20 ft | 30 kts | 163° |
| 2026-05-07 11:59 | 37.74202 | 20.88787 | 20 ft | 10 kts | 140° |
| 2026-05-07 11:59 | 37.74175 | 20.88780 | 20 ft | 3 kts | 286° |
| 2026-05-07 11:59 | 37.74214 | 20.88755 | 20 ft | 10 kts | 339° |
| 2026-05-07 12:00 | 37.74302 | 20.88721 | 20 ft | 17 kts | 344° |
| 2026-05-07 12:00 | 37.74438 | 20.88672 | 21 ft | 23 kts | 343° |
| 2026-05-07 12:00 | 37.74610 | 20.88610 | 21 ft | 29 kts | 343° |
| 2026-05-07 12:00 | 37.74825 | 20.88527 | 20 ft | 35 kts | 343° |
| 2026-05-07 12:01 | 37.75030 | 20.88465 | 21 ft | 21 kts | 9° |
| 2026-05-07 12:01 | 37.75103 | 20.88518 | 22 ft | 7 kts | 32° |
| 2026-05-07 12:01 | 37.75153 | 20.88523 | 22 ft | 8 kts | 351° |
| 2026-05-07 12:01 | 37.75209 | 20.88501 | 20 ft | 9 kts | 342° |
| 2026-05-07 12:02 | 37.75226 | 20.88502 | 47 ft | 1 kts | 42° |
| 2026-05-07 12:02 | 37.75239 | 20.88532 | 21 ft | 6 kts | 68° |
| 2026-05-07 12:02 | 37.75247 | 20.88562 | 20 ft | 3 kts | 72° |
| 2026-05-07 12:02 | 37.75251 | 20.88578 | 20 ft | 0 kts | 73° |